createdAt,value
2022-12-08T00:00:10.152Z,5.60
2022-12-08T00:00:33.284Z,5.50
2022-12-08T00:00:54.784Z,5.72
2022-12-08T00:01:09.357Z,5.80
2022-12-08T00:01:25.416Z,5.63
2022-12-08T00:01:38.182Z,5.78
2022-12-08T00:01:50.906Z,6.20
2022-12-08T00:02:04.030Z,6.38
2022-12-08T00:02:17.036Z,6.80
2022-12-08T00:02:29.935Z,6.82
2022-12-08T00:02:44.603Z,6.43
2022-12-08T00:02:57.618Z,5.80
2022-12-08T00:03:10.742Z,5.72
2022-12-08T00:03:23.513Z,5.53
2022-12-08T00:03:36.736Z,5.40
2022-12-08T00:03:49.353Z,5.50
2022-12-08T00:04:04.565Z,6.03
2022-12-08T00:04:17.184Z,6.63
2022-12-08T00:04:29.738Z,6.55
2022-12-08T00:04:57.193Z,6.55
2022-12-08T00:05:28.397Z,6.68
2022-12-08T00:06:03.248Z,6.60
2022-12-08T00:06:42.226Z,5.53
2022-12-08T00:07:12.977Z,6.57
2022-12-08T00:07:44.422Z,6.03
2022-12-08T00:08:15.333Z,6.00
2022-12-08T00:08:46.208Z,5.70
2022-12-08T00:09:17.412Z,5.20
2022-12-08T00:09:38.328Z,5.40
2022-12-08T00:09:51.854Z,5.43
2022-12-08T00:10:39.563Z,5.78
2022-12-08T00:10:50.383Z,5.93
2022-12-08T00:11:02.978Z,5.60
2022-12-08T00:11:17.181Z,5.65
2022-12-08T00:11:29.736Z,5.50
2022-12-08T00:11:42.276Z,5.40
2022-12-08T00:11:57.310Z,5.55
2022-12-08T00:12:12.678Z,5.45
2022-12-08T00:12:25.484Z,4.88
2022-12-08T00:12:38.017Z,4.93
2022-12-08T00:12:50.749Z,5.20
2022-12-08T00:13:03.307Z,4.97
2022-12-08T00:13:15.837Z,4.82
2022-12-08T00:13:28.372Z,5.05
2022-12-08T00:13:41.093Z,5.15
2022-12-08T00:13:54.628Z,5.25
2022-12-08T00:14:07.160Z,5.38
2022-12-08T00:14:19.876Z,5.20
2022-12-08T00:14:35.243Z,5.10
2022-12-08T00:14:49.878Z,5.28
2022-12-08T00:15:03.720Z,5.40
2022-12-08T00:15:16.628Z,5.30
2022-12-08T00:15:29.152Z,5.32
2022-12-08T00:15:41.710Z,5.45
2022-12-08T00:16:00.317Z,5.55
2022-12-08T00:16:13.246Z,5.88
2022-12-08T00:16:25.859Z,5.90
2022-12-08T00:16:38.515Z,5.90
2022-12-08T00:16:52.168Z,6.22
2022-12-08T00:17:06.313Z,6.40
2022-12-08T00:17:18.952Z,6.72
2022-12-08T00:17:31.522Z,6.93
2022-12-08T00:17:44.049Z,7.10
2022-12-08T00:17:56.609Z,7.05
2022-12-08T00:18:09.134Z,6.55
2022-12-08T00:18:22.651Z,5.93
2022-12-08T00:18:35.316Z,5.35
2022-12-08T00:18:47.932Z,5.75
2022-12-08T00:19:00.468Z,5.82
2022-12-08T00:19:13.015Z,5.53
2022-12-08T00:19:26.323Z,5.53
2022-12-08T00:19:39.481Z,5.75
2022-12-08T00:19:53.000Z,5.80
2022-12-08T00:20:06.996Z,5.72
2022-12-08T00:20:19.558Z,5.85
2022-12-08T00:20:32.144Z,5.90
2022-12-08T00:20:44.715Z,5.80
2022-12-08T00:20:57.601Z,5.88
2022-12-08T00:21:10.156Z,6.10
2022-12-08T00:21:22.968Z,6.18
2022-12-08T00:21:36.514Z,6.10
2022-12-08T00:21:49.309Z,6.40
2022-12-08T00:22:03.199Z,6.63
2022-12-08T00:22:15.802Z,6.25
2022-12-08T00:22:29.197Z,6.03
2022-12-08T00:22:41.767Z,5.63
2022-12-08T00:22:55.274Z,5.78
2022-12-08T00:23:07.824Z,5.65
2022-12-08T00:23:20.390Z,5.65
2022-12-08T00:23:33.179Z,5.72
2022-12-08T00:23:45.835Z,5.70
2022-12-08T00:23:58.440Z,5.50
2022-12-08T00:24:11.141Z,5.38
2022-12-08T00:24:26.588Z,5.43
2022-12-08T00:24:40.327Z,5.72
2022-12-08T00:24:52.862Z,5.70
2022-12-08T00:25:07.780Z,6.03
2022-12-08T00:25:20.390Z,6.20
2022-12-08T00:25:36.084Z,5.75
2022-12-08T00:25:48.982Z,5.63
2022-12-08T00:26:05.356Z,5.40
2022-12-08T00:26:18.874Z,5.40
2022-12-08T00:26:31.422Z,5.53
2022-12-08T00:26:44.396Z,5.40
2022-12-08T00:26:56.987Z,5.35
2022-12-08T00:27:11.624Z,5.43
2022-12-08T00:27:24.191Z,5.40
2022-12-08T00:27:37.739Z,5.32
2022-12-08T00:27:50.273Z,5.50
2022-12-08T00:28:03.046Z,5.22
2022-12-08T00:28:15.774Z,5.20
2022-12-08T00:28:28.328Z,5.15
2022-12-08T00:28:40.902Z,4.82
2022-12-08T00:28:53.442Z,4.85
2022-12-08T00:29:07.266Z,4.90
2022-12-08T00:29:19.805Z,5.20
2022-12-08T00:29:32.556Z,5.40
2022-12-08T00:29:45.790Z,5.47
2022-12-08T00:29:58.272Z,5.22
2022-12-08T00:30:11.565Z,4.90
2022-12-08T00:30:24.405Z,4.88
2022-12-08T00:30:40.641Z,5.25
2022-12-08T00:30:53.155Z,5.18
2022-12-08T00:31:11.069Z,5.20
2022-12-08T00:31:23.677Z,5.28
2022-12-08T00:31:36.829Z,4.93
2022-12-08T00:31:49.539Z,4.93
2022-12-08T00:32:03.259Z,4.95
2022-12-08T00:32:15.892Z,4.95
2022-12-08T00:32:28.477Z,4.70
2022-12-08T00:32:41.025Z,4.80
2022-12-08T00:32:53.601Z,4.80
2022-12-08T00:33:06.174Z,4.50
2022-12-08T00:33:19.718Z,4.47
2022-12-08T00:33:32.276Z,4.78
2022-12-08T00:33:44.815Z,4.63
2022-12-08T00:33:58.152Z,4.70
2022-12-08T00:34:13.216Z,4.65
2022-12-08T00:34:25.783Z,4.65
2022-12-08T00:34:38.352Z,4.53
2022-12-08T00:34:51.194Z,4.50
2022-12-08T00:35:04.764Z,4.57
2022-12-08T00:35:17.541Z,4.40
2022-12-08T00:35:30.126Z,4.63
2022-12-08T00:35:43.363Z,4.50
2022-12-08T00:35:57.152Z,4.65
2022-12-08T00:36:11.382Z,4.72
2022-12-08T00:36:23.971Z,4.65
2022-12-08T00:36:36.522Z,4.60
2022-12-08T00:36:49.085Z,4.55
2022-12-08T00:37:02.898Z,4.45
2022-12-08T00:37:15.489Z,4.50
2022-12-08T00:37:28.063Z,4.55
2022-12-08T00:37:40.680Z,4.78
2022-12-08T00:37:59.085Z,5.00
2022-12-08T00:38:13.401Z,4.93
2022-12-08T00:38:25.960Z,4.80
2022-12-08T00:38:40.384Z,4.95
2022-12-08T00:38:52.941Z,5.15
2022-12-08T00:39:05.638Z,5.10
2022-12-08T00:39:18.839Z,5.18
2022-12-08T00:39:31.476Z,5.50
2022-12-08T00:39:44.066Z,5.50
2022-12-08T00:39:56.656Z,5.38
2022-12-08T00:40:12.260Z,5.47
2022-12-08T00:40:24.844Z,5.70
2022-12-08T00:40:37.468Z,5.70
2022-12-08T00:40:50.054Z,5.43
2022-12-08T00:41:02.634Z,5.25
2022-12-08T00:41:17.412Z,5.10
2022-12-08T00:41:48.527Z,4.72
2022-12-08T00:42:13.049Z,4.63
2022-12-08T00:42:25.660Z,4.50
2022-12-08T00:42:39.365Z,4.82
2022-12-08T00:42:51.993Z,4.90
2022-12-08T00:43:04.611Z,4.82
2022-12-08T00:43:17.222Z,4.72
2022-12-08T00:43:29.905Z,4.90
2022-12-08T00:43:43.099Z,4.93
2022-12-08T00:43:55.661Z,5.13
2022-12-08T00:44:09.287Z,5.22
2022-12-08T00:44:21.842Z,5.13
2022-12-08T00:44:34.408Z,5.00
2022-12-08T00:44:48.064Z,4.65
2022-12-08T00:45:00.642Z,4.50
2022-12-08T00:45:14.256Z,4.85
2022-12-08T00:45:26.915Z,4.88
2022-12-08T00:45:39.578Z,4.68
2022-12-08T00:45:52.272Z,4.93
2022-12-08T00:46:05.141Z,4.80
2022-12-08T00:46:18.646Z,4.65
2022-12-08T00:46:31.277Z,4.65
2022-12-08T00:46:44.870Z,4.50
2022-12-08T00:46:57.603Z,4.60
2022-12-08T00:47:10.252Z,4.68
2022-12-08T00:47:24.978Z,4.82
2022-12-08T00:47:37.815Z,4.90
2022-12-08T00:47:51.384Z,4.70
2022-12-08T00:48:04.830Z,4.60
2022-12-08T00:48:17.404Z,4.68
2022-12-08T00:48:30.035Z,4.50
2022-12-08T00:48:42.628Z,4.60
2022-12-08T00:48:55.175Z,4.70
2022-12-08T00:49:08.134Z,4.68
2022-12-08T00:49:22.037Z,4.70
2022-12-08T00:49:34.804Z,4.85
2022-12-08T00:49:47.403Z,4.80
2022-12-08T00:49:59.969Z,4.63
2022-12-08T00:50:12.854Z,5.20
2022-12-08T00:50:25.480Z,5.10
2022-12-08T00:50:38.065Z,4.43
2022-12-08T00:50:50.620Z,4.47
2022-12-08T00:51:04.254Z,4.50
2022-12-08T00:51:16.787Z,4.47
2022-12-08T00:51:29.394Z,4.38
2022-12-08T00:51:42.547Z,4.10
2022-12-08T00:51:55.384Z,4.30
2022-12-08T00:52:08.062Z,4.38
2022-12-08T00:52:20.926Z,4.20
2022-12-08T00:52:34.786Z,4.13
2022-12-08T00:52:47.367Z,4.10
2022-12-08T00:52:59.943Z,4.20
2022-12-08T00:53:12.502Z,4.32
2022-12-08T00:53:25.154Z,4.20
2022-12-08T00:53:37.721Z,4.05
2022-12-08T00:53:50.315Z,4.00
2022-12-08T00:54:04.417Z,4.00
2022-12-08T00:54:17.070Z,4.10
2022-12-08T00:54:29.876Z,4.70
2022-12-08T00:54:42.440Z,4.97
2022-12-08T00:54:55.014Z,4.63
2022-12-08T00:55:09.423Z,4.25
2022-12-08T00:55:23.444Z,4.15
2022-12-08T00:55:36.027Z,4.28
2022-12-08T00:55:48.633Z,4.35
2022-12-08T00:56:01.223Z,4.25
2022-12-08T00:56:13.772Z,4.20
2022-12-08T00:56:26.434Z,4.32
2022-12-08T00:56:40.231Z,4.43
2022-12-08T00:56:53.985Z,4.20
2022-12-08T00:57:06.860Z,4.07
2022-12-08T00:57:19.419Z,4.30
2022-12-08T00:57:32.761Z,4.10
2022-12-08T00:57:45.343Z,4.15
2022-12-08T00:57:57.939Z,4.32
2022-12-08T00:58:10.595Z,4.20
2022-12-08T00:58:23.205Z,4.35
2022-12-08T00:58:35.777Z,4.60
2022-12-08T00:58:49.382Z,4.80
2022-12-08T00:59:03.442Z,4.75
2022-12-08T00:59:16.176Z,4.75
2022-12-08T00:59:28.763Z,4.53
2022-12-08T00:59:41.341Z,4.38
2022-12-08T00:59:53.965Z,4.20
2022-12-08T01:00:09.307Z,3.88
2022-12-08T01:00:22.088Z,3.85
2022-12-08T01:00:34.681Z,4.07
2022-12-08T01:00:47.336Z,4.03
2022-12-08T01:01:00.071Z,3.90
2022-12-08T01:01:13.273Z,4.00
2022-12-08T01:01:27.222Z,4.10
2022-12-08T01:01:40.148Z,4.10
2022-12-08T01:01:52.774Z,4.28
2022-12-08T01:02:05.305Z,4.25
2022-12-08T01:02:17.938Z,4.10
2022-12-08T01:02:33.307Z,4.35
2022-12-08T01:02:45.950Z,4.53
2022-12-08T01:02:58.574Z,4.50
2022-12-08T01:03:11.317Z,4.35
2022-12-08T01:03:25.501Z,4.00
2022-12-08T01:03:38.232Z,3.88
2022-12-08T01:03:52.530Z,3.90
2022-12-08T01:04:05.933Z,4.30
2022-12-08T01:04:19.718Z,4.57
2022-12-08T01:04:32.297Z,4.10
2022-12-08T01:04:45.023Z,3.78
2022-12-08T01:04:57.599Z,3.40
2022-12-08T01:05:10.173Z,3.25
2022-12-08T01:05:23.888Z,3.40
2022-12-08T01:05:36.671Z,3.78
2022-12-08T01:05:49.287Z,3.80
2022-12-08T01:06:04.035Z,3.65
2022-12-08T01:06:16.742Z,3.50
2022-12-08T01:06:29.366Z,3.50
2022-12-08T01:06:42.664Z,3.70
2022-12-08T01:06:56.240Z,3.70
2022-12-08T01:07:08.959Z,3.75
2022-12-08T01:07:21.516Z,3.78
2022-12-08T01:07:34.068Z,3.90
2022-12-08T01:07:48.998Z,4.07
2022-12-08T01:08:01.714Z,3.70
2022-12-08T01:08:14.504Z,3.60
2022-12-08T01:08:28.125Z,3.80
2022-12-08T01:08:41.419Z,3.92
2022-12-08T01:08:54.068Z,4.03
2022-12-08T01:09:08.249Z,4.30
2022-12-08T01:09:20.838Z,4.13
2022-12-08T01:09:33.504Z,4.15
2022-12-08T01:09:47.077Z,4.50
2022-12-08T01:09:59.808Z,4.65
2022-12-08T01:10:12.418Z,4.45
2022-12-08T01:10:26.668Z,4.20
2022-12-08T01:10:39.708Z,4.10
2022-12-08T01:10:52.532Z,3.88
2022-12-08T01:11:06.677Z,3.58
2022-12-08T01:11:19.828Z,3.40
2022-12-08T01:11:32.815Z,3.75
2022-12-08T01:11:46.469Z,3.75
2022-12-08T01:12:00.187Z,3.63
2022-12-08T01:12:12.752Z,3.75
2022-12-08T01:12:25.341Z,3.65
2022-12-08T01:12:37.943Z,3.65
2022-12-08T01:12:50.488Z,3.58
2022-12-08T01:13:03.346Z,3.60
2022-12-08T01:13:15.937Z,3.50
2022-12-08T01:13:28.555Z,3.40
2022-12-08T01:13:42.474Z,3.50
2022-12-08T01:13:55.221Z,3.67
2022-12-08T01:14:07.848Z,3.92
2022-12-08T01:14:21.067Z,4.00
2022-12-08T01:14:33.645Z,3.88
2022-12-08T01:14:47.478Z,3.45
2022-12-08T01:15:02.534Z,3.22
2022-12-08T01:15:15.651Z,3.47
2022-12-08T01:15:28.202Z,3.47
2022-12-08T01:15:40.786Z,3.33
2022-12-08T01:15:53.367Z,3.20
2022-12-08T01:16:07.304Z,3.33
2022-12-08T01:16:23.049Z,3.30
2022-12-08T01:16:36.923Z,3.40
2022-12-08T01:16:49.620Z,3.60
2022-12-08T01:17:02.271Z,3.60
2022-12-08T01:17:14.935Z,3.30
2022-12-08T01:17:28.484Z,3.50
2022-12-08T01:17:41.088Z,3.70
2022-12-08T01:17:53.673Z,3.63
2022-12-08T01:18:06.287Z,3.90
2022-12-08T01:18:18.887Z,3.83
2022-12-08T01:18:31.584Z,3.58
2022-12-08T01:18:44.230Z,3.30
2022-12-08T01:18:57.475Z,3.30
2022-12-08T01:19:12.957Z,3.50
2022-12-08T01:19:25.884Z,3.78
2022-12-08T01:19:38.484Z,3.85
2022-12-08T01:19:51.218Z,3.90
2022-12-08T01:20:05.139Z,3.78
2022-12-08T01:20:18.029Z,3.88
2022-12-08T01:20:30.608Z,3.88
2022-12-08T01:20:43.229Z,3.97
2022-12-08T01:20:57.213Z,3.83
2022-12-08T01:21:09.875Z,3.92
2022-12-08T01:21:22.447Z,3.88
2022-12-08T01:21:35.072Z,3.60
2022-12-08T01:21:47.752Z,3.70
2022-12-08T01:22:00.340Z,3.80
2022-12-08T01:22:13.930Z,3.72
2022-12-08T01:22:26.523Z,3.58
2022-12-08T01:22:39.145Z,3.60
2022-12-08T01:22:51.713Z,3.65
2022-12-08T01:23:04.371Z,3.80
2022-12-08T01:23:16.937Z,3.70
2022-12-08T01:23:30.100Z,3.58
2022-12-08T01:23:43.809Z,3.53
2022-12-08T01:23:57.976Z,3.30
2022-12-08T01:24:12.178Z,3.40
2022-12-08T01:24:24.732Z,3.85
2022-12-08T01:24:38.319Z,3.90
2022-12-08T01:24:50.975Z,3.97
2022-12-08T01:25:04.064Z,3.95
2022-12-08T01:25:16.701Z,3.70
2022-12-08T01:25:30.644Z,3.60
2022-12-08T01:25:43.196Z,3.90
2022-12-08T01:25:55.781Z,4.05
2022-12-08T01:26:10.779Z,4.10
2022-12-08T01:26:23.384Z,3.80
2022-12-08T01:26:36.933Z,3.70
2022-12-08T01:26:50.736Z,3.70
2022-12-08T01:27:03.379Z,3.58
2022-12-08T01:27:16.131Z,3.60
2022-12-08T01:27:28.756Z,3.40
2022-12-08T01:27:41.303Z,3.35
2022-12-08T01:27:55.067Z,3.38
2022-12-08T01:28:07.922Z,3.42
2022-12-08T01:28:20.510Z,3.40
2022-12-08T01:28:33.579Z,3.20
2022-12-08T01:28:47.120Z,3.25
2022-12-08T01:29:00.102Z,3.28
2022-12-08T01:29:13.136Z,3.28
2022-12-08T01:29:27.804Z,3.10
2022-12-08T01:29:40.388Z,3.10
2022-12-08T01:29:52.918Z,3.20
2022-12-08T01:30:07.403Z,3.35
2022-12-08T01:30:20.583Z,3.38
2022-12-08T01:30:33.244Z,3.42
2022-12-08T01:30:45.900Z,3.50
2022-12-08T01:31:00.021Z,3.40
2022-12-08T01:31:14.223Z,3.30
2022-12-08T01:31:26.871Z,3.20
2022-12-08T01:31:39.907Z,3.28
2022-12-08T01:31:52.528Z,3.30
2022-12-08T01:32:06.370Z,3.25
2022-12-08T01:32:19.238Z,3.20
2022-12-08T01:32:31.806Z,3.20
2022-12-08T01:32:44.349Z,3.38
2022-12-08T01:32:57.381Z,3.08
2022-12-08T01:33:10.002Z,3.00
2022-12-08T01:33:23.682Z,3.15
2022-12-08T01:33:36.234Z,3.33
2022-12-08T01:33:49.646Z,3.50
2022-12-08T01:34:02.309Z,3.40
2022-12-08T01:34:15.094Z,3.30
2022-12-08T01:34:28.657Z,3.40
2022-12-08T01:34:41.224Z,3.47
2022-12-08T01:34:53.803Z,3.60
2022-12-08T01:35:06.703Z,3.35
2022-12-08T01:35:19.267Z,3.22
2022-12-08T01:35:31.811Z,3.05
2022-12-08T01:35:44.498Z,3.17
2022-12-08T01:35:58.056Z,3.20
2022-12-08T01:36:20.037Z,3.15
2022-12-08T01:36:34.203Z,3.25
2022-12-08T01:36:48.012Z,3.30
2022-12-08T01:37:01.201Z,3.25
2022-12-08T01:37:13.822Z,3.10
2022-12-08T01:37:27.434Z,3.15
2022-12-08T01:37:40.236Z,3.10
2022-12-08T01:37:52.766Z,3.10
2022-12-08T01:38:05.355Z,3.20
2022-12-08T01:38:17.952Z,3.10
2022-12-08T01:38:31.350Z,2.97
2022-12-08T01:38:43.950Z,3.00
2022-12-08T01:38:59.778Z,3.03
2022-12-08T01:39:15.943Z,3.10
2022-12-08T01:39:28.499Z,3.15
2022-12-08T01:39:41.294Z,3.15
2022-12-08T01:39:53.865Z,2.90
2022-12-08T01:40:07.934Z,2.72
2022-12-08T01:40:21.730Z,3.05
2022-12-08T01:40:35.724Z,3.00
2022-12-08T01:40:48.915Z,3.20
2022-12-08T01:41:01.519Z,3.45
2022-12-08T01:41:15.803Z,3.28
2022-12-08T01:41:31.512Z,3.20
2022-12-08T01:41:46.643Z,3.30
2022-12-08T01:41:59.413Z,3.22
2022-12-08T01:42:20.546Z,3.40
2022-12-08T01:42:34.537Z,3.45
2022-12-08T01:42:47.289Z,3.25
2022-12-08T01:42:59.848Z,3.17
2022-12-08T01:43:16.977Z,3.20
2022-12-08T01:43:51.172Z,3.22
2022-12-08T01:44:24.649Z,3.50
2022-12-08T01:44:59.851Z,3.55
2022-12-08T01:45:21.393Z,3.78
2022-12-08T01:45:33.943Z,3.95
2022-12-08T01:45:47.774Z,3.72
2022-12-08T01:46:00.437Z,3.78
2022-12-08T01:46:14.148Z,3.95
2022-12-08T01:46:27.639Z,3.85
2022-12-08T01:46:42.586Z,3.90
2022-12-08T01:46:55.688Z,3.90
2022-12-08T01:47:08.936Z,3.78
2022-12-08T01:47:23.202Z,3.85
2022-12-08T01:47:42.031Z,3.85
2022-12-08T01:47:57.756Z,4.28
2022-12-08T01:48:14.736Z,4.40
2022-12-08T01:48:28.044Z,4.03
2022-12-08T01:48:40.951Z,3.90
2022-12-08T01:48:57.247Z,3.83
2022-12-08T01:49:16.912Z,3.72
2022-12-08T01:49:31.900Z,3.67
2022-12-08T01:49:44.832Z,4.03
2022-12-08T01:49:57.811Z,4.13
2022-12-08T01:50:13.258Z,3.90
2022-12-08T01:50:29.092Z,4.00
2022-12-08T01:50:43.124Z,4.07
2022-12-08T01:50:56.246Z,4.00
2022-12-08T01:51:08.911Z,3.90
2022-12-08T01:51:21.741Z,3.97
2022-12-08T01:51:42.227Z,3.92
2022-12-08T01:52:00.586Z,3.78
2022-12-08T01:52:19.233Z,3.80
2022-12-08T01:52:35.759Z,3.63
2022-12-08T01:52:51.948Z,3.55
2022-12-08T01:53:09.362Z,3.70
2022-12-08T01:53:24.224Z,4.00
2022-12-08T01:53:38.099Z,4.00
2022-12-08T01:53:50.941Z,3.92
2022-12-08T01:54:05.871Z,4.00
2022-12-08T01:54:19.793Z,4.20
2022-12-08T01:54:37.143Z,4.18
2022-12-08T01:54:53.686Z,3.83
2022-12-08T01:55:13.575Z,3.70
2022-12-08T01:55:30.680Z,3.70
2022-12-08T01:55:48.839Z,3.70
2022-12-08T01:56:07.058Z,3.90
2022-12-08T01:56:26.202Z,3.53
2022-12-08T01:56:44.746Z,3.47
2022-12-08T01:57:01.495Z,3.53
2022-12-08T01:57:20.197Z,3.50
2022-12-08T01:57:36.977Z,3.63
2022-12-08T01:57:53.648Z,3.63
2022-12-08T01:58:12.465Z,3.78
2022-12-08T01:58:29.327Z,3.70
2022-12-08T01:58:45.870Z,3.67
2022-12-08T01:58:58.699Z,3.35
2022-12-08T01:59:12.523Z,3.25
2022-12-08T01:59:27.184Z,3.53
2022-12-08T01:59:44.831Z,3.65
2022-12-08T02:00:02.734Z,3.80
2022-12-08T02:00:17.743Z,3.80
2022-12-08T02:00:30.418Z,3.55
2022-12-08T02:00:44.152Z,3.50
2022-12-08T02:00:58.055Z,3.60
2022-12-08T02:01:11.413Z,3.80
2022-12-08T02:01:24.423Z,3.63
2022-12-08T02:01:37.199Z,3.60
2022-12-08T02:01:49.977Z,3.67
2022-12-08T02:02:02.960Z,3.75
2022-12-08T02:02:15.794Z,3.55
2022-12-08T02:02:37.433Z,3.50
2022-12-08T02:02:54.422Z,3.60
2022-12-08T02:03:12.028Z,3.97
2022-12-08T02:03:29.554Z,4.03
2022-12-08T02:03:49.329Z,4.20
2022-12-08T02:04:05.323Z,4.43
2022-12-08T02:04:18.123Z,4.45
2022-12-08T02:04:30.762Z,4.20
2022-12-08T02:04:43.322Z,4.00
2022-12-08T02:04:56.026Z,4.07
2022-12-08T02:05:09.683Z,4.15
2022-12-08T02:05:25.834Z,4.40
2022-12-08T02:05:41.953Z,4.38
2022-12-08T02:05:55.010Z,3.85
2022-12-08T02:06:08.482Z,3.55
2022-12-08T02:06:21.398Z,3.60
2022-12-08T02:06:38.557Z,3.75
2022-12-08T02:06:52.947Z,3.88
2022-12-08T02:07:08.305Z,4.07
2022-12-08T02:07:22.264Z,3.95
2022-12-08T02:07:36.153Z,3.60
2022-12-08T02:07:49.838Z,3.63
2022-12-08T02:08:08.175Z,3.90
2022-12-08T02:08:21.710Z,4.15
2022-12-08T02:08:36.167Z,4.22
2022-12-08T02:08:50.038Z,4.05
2022-12-08T02:09:03.761Z,3.58
2022-12-08T02:09:17.672Z,3.40
2022-12-08T02:09:30.380Z,3.55
2022-12-08T02:09:44.285Z,3.65
2022-12-08T02:09:57.750Z,3.53
2022-12-08T02:10:12.058Z,3.47
2022-12-08T02:10:27.427Z,3.63
2022-12-08T02:10:43.297Z,3.53
2022-12-08T02:10:57.275Z,3.60
2022-12-08T02:11:11.631Z,3.90
2022-12-08T02:11:24.220Z,3.72
2022-12-08T02:11:36.837Z,3.65
2022-12-08T02:11:50.526Z,3.80
2022-12-08T02:12:03.211Z,3.97
2022-12-08T02:12:16.009Z,4.10
2022-12-08T02:12:29.633Z,4.03
2022-12-08T02:12:42.252Z,3.90
2022-12-08T02:12:56.666Z,3.90
2022-12-08T02:13:13.070Z,3.92
2022-12-08T02:13:26.090Z,3.67
2022-12-08T02:13:40.076Z,3.72
2022-12-08T02:13:55.257Z,3.70
2022-12-08T02:14:09.940Z,3.67
2022-12-08T02:14:22.895Z,3.60
2022-12-08T02:14:35.896Z,3.70
2022-12-08T02:14:48.534Z,3.65
2022-12-08T02:15:05.048Z,3.40
2022-12-08T02:15:18.568Z,3.63
2022-12-08T02:15:40.112Z,3.85
2022-12-08T02:16:02.192Z,3.70
2022-12-08T02:16:26.075Z,3.78
2022-12-08T02:16:45.435Z,3.70
2022-12-08T02:17:06.857Z,3.60
2022-12-08T02:17:47.296Z,3.45
2022-12-08T02:18:08.391Z,3.55
2022-12-08T02:18:37.292Z,3.50
2022-12-08T02:19:29.015Z,3.33
2022-12-08T02:20:04.960Z,3.28
2022-12-08T02:20:27.517Z,3.58
2022-12-08T02:20:54.196Z,3.70
2022-12-08T02:21:11.028Z,3.65
2022-12-08T02:21:30.042Z,3.90
2022-12-08T02:21:54.002Z,3.60
2022-12-08T02:22:13.957Z,3.83
2022-12-08T02:22:33.572Z,3.85
2022-12-08T02:22:54.770Z,3.60
2022-12-08T02:23:19.997Z,3.58
2022-12-08T02:23:41.479Z,3.78
2022-12-08T02:24:00.176Z,3.80
2022-12-08T02:24:19.316Z,3.83
2022-12-08T02:24:40.885Z,3.92
2022-12-08T02:25:01.921Z,3.78
2022-12-08T02:25:21.909Z,3.50
2022-12-08T02:25:45.959Z,3.30
2022-12-08T02:26:32.777Z,3.58
2022-12-08T02:27:11.468Z,3.38
2022-12-08T02:27:42.632Z,3.20
2022-12-08T02:28:05.286Z,3.53
2022-12-08T02:28:39.470Z,3.70
2022-12-08T02:29:18.873Z,3.25
2022-12-08T02:30:04.931Z,3.22
2022-12-08T02:30:23.517Z,3.20
2022-12-08T02:30:47.325Z,3.10
2022-12-08T02:31:13.226Z,3.17
2022-12-08T02:31:38.409Z,3.00
2022-12-08T02:32:03.522Z,3.00
2022-12-08T02:32:36.541Z,3.10
2022-12-08T02:33:34.126Z,2.92
2022-12-08T02:34:05.360Z,3.30
2022-12-08T02:34:25.206Z,2.80
2022-12-08T02:34:44.476Z,3.00
2022-12-08T02:35:04.108Z,2.88
2022-12-08T02:35:23.456Z,2.90
2022-12-08T02:35:44.216Z,2.83
2022-12-08T02:36:00.917Z,3.00
2022-12-08T02:36:21.223Z,3.05
2022-12-08T02:36:42.628Z,3.00
2022-12-08T02:37:06.894Z,3.00
2022-12-08T02:37:28.226Z,3.20
2022-12-08T02:37:48.566Z,3.15
2022-12-08T02:38:10.500Z,3.28
2022-12-08T02:38:31.864Z,3.30
2022-12-08T02:38:53.990Z,3.40
2022-12-08T02:39:19.805Z,3.60
2022-12-08T02:39:42.673Z,3.15
2022-12-08T02:40:02.486Z,3.17
2022-12-08T02:40:21.532Z,3.15
2022-12-08T02:40:42.597Z,3.30
2022-12-08T02:41:05.602Z,3.17
2022-12-08T02:41:26.839Z,3.20
2022-12-08T02:41:47.644Z,3.30
2022-12-08T02:42:08.090Z,3.15
2022-12-08T02:42:28.363Z,3.20
2022-12-08T02:42:47.203Z,3.42
2022-12-08T02:43:04.739Z,3.60
2022-12-08T02:43:27.241Z,3.67
2022-12-08T02:43:42.960Z,3.40
2022-12-08T02:43:59.476Z,3.33
2022-12-08T02:44:18.160Z,3.20
2022-12-08T02:44:35.305Z,3.20
2022-12-08T02:44:52.994Z,3.35
2022-12-08T02:45:11.945Z,3.67
2022-12-08T02:45:30.812Z,3.70
2022-12-08T02:45:49.731Z,3.60
2022-12-08T02:46:06.708Z,3.53
2022-12-08T02:46:23.393Z,3.60
2022-12-08T02:46:40.599Z,3.70
2022-12-08T02:46:57.971Z,3.72
2022-12-08T02:47:15.161Z,4.00
2022-12-08T02:47:29.388Z,3.83
2022-12-08T02:47:43.156Z,3.67
2022-12-08T02:47:58.086Z,3.75
2022-12-08T02:48:11.027Z,3.67
2022-12-08T02:48:23.822Z,3.95
2022-12-08T02:48:37.343Z,4.00
2022-12-08T02:48:53.060Z,3.88
2022-12-08T02:49:07.145Z,3.75
2022-12-08T02:49:19.844Z,3.78
2022-12-08T02:49:33.623Z,3.58
2022-12-08T02:49:46.695Z,3.58
2022-12-08T02:49:59.344Z,3.60
2022-12-08T02:50:13.820Z,3.50
2022-12-08T02:50:26.587Z,3.50
2022-12-08T02:50:39.216Z,3.63
2022-12-08T02:50:51.948Z,3.72
2022-12-08T02:51:05.156Z,3.70
2022-12-08T02:51:17.756Z,3.55
2022-12-08T02:51:30.727Z,3.50
2022-12-08T02:51:44.311Z,3.50
2022-12-08T02:52:05.698Z,3.35
2022-12-08T02:52:41.099Z,3.40
2022-12-08T02:52:53.880Z,3.65
2022-12-08T02:53:19.543Z,3.60
2022-12-08T02:53:35.305Z,3.60
2022-12-08T02:53:48.817Z,3.70
2022-12-08T02:54:03.280Z,3.85
2022-12-08T02:54:15.935Z,3.97
2022-12-08T02:54:28.549Z,3.90
2022-12-08T02:54:44.836Z,3.70
2022-12-08T02:55:02.528Z,3.70
2022-12-08T02:55:22.005Z,3.70
2022-12-08T02:55:46.734Z,3.90
2022-12-08T02:56:05.933Z,3.90
2022-12-08T02:56:41.697Z,3.63
2022-12-08T02:57:11.175Z,3.58
2022-12-08T02:57:32.235Z,3.50
2022-12-08T02:58:16.961Z,3.60
2022-12-08T02:58:46.840Z,3.60
2022-12-08T02:59:20.312Z,3.55
2022-12-08T02:59:52.433Z,3.80
2022-12-08T03:00:09.163Z,3.40
2022-12-08T03:00:24.785Z,3.42
2022-12-08T03:00:48.392Z,3.28
2022-12-08T03:01:25.500Z,3.20
2022-12-08T03:02:00.183Z,3.20
2022-12-08T03:02:36.164Z,3.40
2022-12-08T03:03:06.220Z,3.53
2022-12-08T03:03:27.739Z,4.40
2022-12-08T03:03:51.159Z,4.20
2022-12-08T03:04:13.054Z,4.55
2022-12-08T03:04:39.482Z,4.05
2022-12-08T03:05:02.502Z,3.90
2022-12-08T03:05:28.617Z,3.80
2022-12-08T03:05:59.892Z,3.97
2022-12-08T03:06:26.054Z,3.70
2022-12-08T03:06:48.980Z,3.47
2022-12-08T03:07:08.508Z,3.22
2022-12-08T03:07:25.752Z,3.58
2022-12-08T03:07:45.702Z,3.80
2022-12-08T03:08:08.978Z,3.90
2022-12-08T03:08:27.850Z,3.90
2022-12-08T03:08:48.282Z,3.92
2022-12-08T03:09:09.582Z,3.95
2022-12-08T03:09:30.592Z,3.75
2022-12-08T03:09:50.128Z,3.80
2022-12-08T03:10:07.543Z,4.10
2022-12-08T03:10:28.010Z,4.00
2022-12-08T03:10:45.240Z,3.90
2022-12-08T03:11:05.793Z,3.80
2022-12-08T03:11:25.159Z,4.07
2022-12-08T03:11:42.722Z,4.07
2022-12-08T03:12:02.763Z,3.80
2022-12-08T03:12:21.783Z,4.10
2022-12-08T03:12:38.680Z,3.88
2022-12-08T03:12:59.070Z,3.90
2022-12-08T03:13:14.852Z,3.90
2022-12-08T03:13:34.514Z,3.53
2022-12-08T03:13:51.564Z,3.42
2022-12-08T03:14:07.256Z,3.50
2022-12-08T03:14:22.473Z,3.60
2022-12-08T03:14:36.849Z,3.58
2022-12-08T03:14:53.623Z,3.42
2022-12-08T03:15:10.754Z,3.45
2022-12-08T03:15:23.596Z,3.30
2022-12-08T03:15:38.731Z,3.20
2022-12-08T03:15:53.656Z,3.30
2022-12-08T03:16:10.434Z,3.50
2022-12-08T03:16:26.188Z,3.40
2022-12-08T03:16:44.410Z,3.17
2022-12-08T03:16:58.698Z,3.20
2022-12-08T03:17:12.802Z,3.17
2022-12-08T03:17:29.880Z,3.40
2022-12-08T03:17:48.321Z,3.50
2022-12-08T03:18:00.971Z,3.47
2022-12-08T03:18:17.416Z,3.40
2022-12-08T03:18:33.113Z,3.30
2022-12-08T03:18:51.101Z,3.20
2022-12-08T03:19:10.812Z,3.22
2022-12-08T03:19:25.855Z,3.30
2022-12-08T03:19:42.997Z,3.03
2022-12-08T03:19:58.324Z,3.22
2022-12-08T03:20:16.536Z,3.47
2022-12-08T03:20:31.241Z,3.40
2022-12-08T03:20:46.508Z,3.17
2022-12-08T03:21:00.234Z,3.25
2022-12-08T03:21:16.645Z,3.35
2022-12-08T03:21:31.410Z,3.45
2022-12-08T03:21:45.763Z,3.50
2022-12-08T03:22:03.311Z,3.35
2022-12-08T03:22:19.933Z,3.33
2022-12-08T03:22:33.536Z,3.45
2022-12-08T03:22:48.202Z,3.40
2022-12-08T03:23:04.985Z,3.38
2022-12-08T03:23:19.610Z,3.40
2022-12-08T03:23:33.238Z,3.25
2022-12-08T03:23:48.045Z,3.40
2022-12-08T03:24:04.874Z,3.45
2022-12-08T03:24:19.865Z,3.30
2022-12-08T03:24:35.213Z,3.55
2022-12-08T03:24:48.667Z,3.83
2022-12-08T03:25:01.640Z,3.70
2022-12-08T03:25:17.192Z,3.75
2022-12-08T03:25:34.127Z,3.90
2022-12-08T03:25:54.601Z,3.75
2022-12-08T03:26:13.573Z,3.70
2022-12-08T03:26:31.448Z,3.70
2022-12-08T03:26:47.100Z,3.50
2022-12-08T03:27:03.829Z,3.40
2022-12-08T03:27:20.103Z,3.42
2022-12-08T03:27:32.921Z,3.47
2022-12-08T03:27:46.605Z,3.40
2022-12-08T03:27:59.964Z,3.25
2022-12-08T03:28:13.154Z,3.28
2022-12-08T03:28:25.988Z,3.40
2022-12-08T03:28:39.195Z,3.50
2022-12-08T03:28:51.943Z,3.40
2022-12-08T03:29:06.154Z,3.42
2022-12-08T03:29:19.115Z,3.40
2022-12-08T03:29:32.836Z,3.55
2022-12-08T03:29:46.870Z,3.60
2022-12-08T03:30:01.153Z,3.40
2022-12-08T03:30:13.940Z,3.38
2022-12-08T03:30:30.548Z,3.63